createdAt,value
2018-09-14T00:00:44.727Z,13.90
2018-09-14T00:03:13.216Z,13.90
2018-09-14T00:05:41.804Z,13.90
2018-09-14T00:08:10.393Z,13.91
2018-09-14T00:10:39.174Z,13.92
2018-09-14T00:13:07.654Z,13.95
2018-09-14T00:15:36.242Z,13.93
2018-09-14T00:18:04.926Z,13.94
2018-09-14T00:20:33.510Z,13.96
2018-09-14T00:23:02.836Z,13.99
2018-09-14T00:25:31.310Z,14.01
2018-09-14T00:28:00.149Z,14.00
2018-09-14T00:30:28.762Z,14.02
2018-09-14T00:32:57.575Z,14.03
2018-09-14T00:35:26.054Z,14.06
2018-09-14T00:37:54.697Z,14.08
2018-09-14T00:40:23.397Z,14.10
2018-09-14T00:42:52.605Z,14.11
2018-09-14T00:45:21.483Z,13.83
2018-09-14T00:47:50.090Z,14.14
2018-09-14T00:50:18.689Z,14.16
2018-09-14T00:52:47.234Z,14.19
2018-09-14T00:55:15.744Z,14.20
2018-09-14T00:57:44.279Z,14.22
2018-09-14T01:00:12.867Z,14.24
2018-09-14T01:02:41.612Z,14.24
2018-09-14T01:05:10.138Z,14.26
2018-09-14T01:07:38.820Z,14.27
2018-09-14T01:10:07.707Z,14.27
2018-09-14T01:12:36.557Z,14.28
2018-09-14T01:15:05.106Z,14.29
2018-09-14T01:17:33.706Z,14.30
2018-09-14T01:20:02.266Z,14.06
2018-09-14T01:22:30.837Z,14.32
2018-09-14T01:24:59.729Z,14.29
2018-09-14T01:27:28.258Z,14.30
2018-09-14T01:29:56.969Z,14.29
2018-09-14T01:32:25.469Z,14.26
2018-09-14T01:34:54.130Z,14.26
2018-09-14T01:37:22.734Z,14.24
2018-09-14T01:39:51.207Z,14.17
2018-09-14T01:42:19.880Z,14.22
2018-09-14T01:44:48.584Z,14.20
2018-09-14T01:47:17.346Z,14.21
2018-09-14T01:49:45.898Z,14.19
2018-09-14T01:52:14.554Z,14.20
2018-09-14T01:54:43.230Z,14.19
2018-09-14T01:57:11.747Z,14.18
2018-09-14T01:59:40.290Z,13.58
2018-09-14T02:02:08.759Z,14.20
2018-09-14T02:04:37.759Z,14.21
2018-09-14T02:07:06.424Z,14.20
2018-09-14T02:09:35.138Z,14.21
2018-09-14T02:12:03.695Z,14.23
2018-09-14T02:14:32.261Z,14.24
2018-09-14T02:17:00.816Z,14.24
2018-09-14T02:19:29.402Z,14.27
2018-09-14T02:21:58.286Z,14.27
2018-09-14T02:24:26.967Z,14.26
2018-09-14T02:26:55.893Z,14.25
2018-09-14T02:29:24.358Z,14.24
2018-09-14T02:31:52.942Z,14.23
2018-09-14T02:34:21.487Z,14.22
2018-09-14T02:36:50.110Z,14.23
2018-09-14T02:39:18.738Z,14.23
2018-09-14T02:41:47.467Z,14.15
2018-09-14T02:44:16.117Z,14.19
2018-09-14T02:46:44.781Z,14.20
2018-09-14T02:49:13.787Z,14.19
2018-09-14T02:51:42.472Z,14.19
2018-09-14T02:54:11.438Z,14.19
2018-09-14T02:56:39.966Z,14.17
2018-09-14T02:59:08.675Z,14.17
2018-09-14T03:01:37.475Z,14.15
2018-09-14T03:04:06.048Z,14.14
2018-09-14T03:06:34.702Z,14.14
2018-09-14T03:09:03.523Z,14.14
2018-09-14T03:11:32.198Z,14.13
2018-09-14T03:14:00.685Z,14.13
2018-09-14T03:16:29.458Z,13.55
2018-09-14T03:18:57.955Z,14.15
2018-09-14T03:21:26.837Z,14.15
2018-09-14T03:23:55.326Z,14.16
2018-09-14T03:26:23.915Z,14.16
2018-09-14T03:28:52.438Z,14.16
2018-09-14T03:31:20.957Z,14.14
2018-09-14T03:33:49.544Z,14.14
2018-09-14T03:36:18.123Z,14.15
2018-09-14T03:38:46.930Z,14.15
2018-09-14T03:41:15.519Z,14.13
2018-09-14T03:43:44.370Z,14.12
2018-09-14T03:46:13.035Z,14.11
2018-09-14T03:48:41.723Z,14.08
2018-09-14T03:51:10.294Z,14.08
2018-09-14T03:53:38.786Z,14.06
2018-09-14T03:56:07.481Z,13.72
2018-09-14T03:58:36.214Z,14.03
2018-09-14T04:01:05.050Z,13.99
2018-09-14T04:03:33.628Z,13.98
2018-09-14T04:06:02.551Z,13.93
2018-09-14T04:08:31.019Z,13.89
2018-09-14T04:10:59.728Z,13.87
2018-09-14T04:13:28.298Z,13.86
2018-09-14T04:15:56.860Z,13.85
2018-09-14T04:18:25.815Z,13.87
2018-09-14T04:20:54.733Z,13.85
2018-09-14T04:23:23.435Z,13.84
2018-09-14T04:25:51.909Z,13.84
2018-09-14T04:28:20.789Z,13.82
2018-09-14T04:30:49.498Z,13.79
2018-09-14T04:33:18.097Z,13.77
2018-09-14T04:35:46.743Z,13.75
2018-09-14T04:38:15.337Z,13.74
2018-09-14T04:40:43.852Z,13.76
2018-09-14T04:43:12.492Z,13.76
2018-09-14T04:45:41.315Z,13.77
2018-09-14T04:48:09.846Z,13.76
2018-09-14T04:50:39.676Z,13.74
2018-09-14T04:53:08.203Z,13.75
2018-09-14T04:55:36.866Z,13.74
2018-09-14T04:58:05.798Z,13.74
2018-09-14T05:00:37.578Z,13.73
2018-09-14T05:03:06.179Z,13.71
2018-09-14T05:05:34.852Z,13.70
2018-09-14T05:08:04.066Z,13.73
2018-09-14T05:10:32.754Z,13.77
2018-09-14T05:13:01.327Z,13.77
2018-09-14T05:15:30.010Z,13.77
2018-09-14T05:18:00.061Z,13.74
2018-09-14T05:20:28.682Z,13.74
2018-09-14T05:22:57.305Z,13.25
2018-09-14T05:25:25.789Z,13.77
2018-09-14T05:27:54.561Z,13.80
2018-09-14T05:30:24.050Z,13.81
2018-09-14T05:32:52.918Z,13.84
2018-09-14T05:35:21.685Z,13.87
2018-09-14T05:37:50.268Z,13.89
2018-09-14T05:40:18.838Z,13.92
2018-09-14T05:42:47.392Z,13.94
2018-09-14T05:45:16.714Z,13.97
2018-09-14T05:47:45.293Z,14.04
2018-09-14T05:50:14.371Z,13.77
2018-09-14T05:52:43.255Z,14.14
2018-09-14T05:55:12.081Z,14.20
2018-09-14T05:57:41.381Z,14.24
2018-09-14T06:00:10.232Z,13.71
2018-09-14T06:02:38.817Z,14.29
2018-09-14T06:05:09.537Z,14.20
2018-09-14T06:07:41.230Z,14.27
2018-09-14T06:10:10.734Z,14.29
2018-09-14T06:12:40.990Z,14.31
2018-09-14T06:15:10.782Z,14.40
2018-09-14T06:17:41.814Z,14.45
2018-09-14T06:20:13.246Z,14.50
2018-09-14T06:22:43.929Z,14.55
2018-09-14T06:25:13.294Z,14.56
2018-09-14T06:27:43.488Z,14.62
2018-09-14T06:30:13.261Z,14.66
2018-09-14T06:32:42.804Z,14.66
2018-09-14T06:35:12.241Z,14.69
2018-09-14T06:37:44.174Z,14.77
2018-09-14T06:40:13.470Z,14.78
2018-09-14T06:42:43.029Z,14.78
2018-09-14T06:45:12.968Z,14.83
2018-09-14T06:47:42.826Z,14.87
2018-09-14T06:50:12.326Z,14.86
2018-09-14T06:52:41.618Z,14.97
2018-09-14T06:55:12.986Z,15.02
2018-09-14T06:57:43.802Z,15.06
2018-09-14T07:00:13.404Z,15.11
2018-09-14T07:02:43.767Z,15.16
2018-09-14T07:05:13.970Z,15.17
2018-09-14T07:07:43.822Z,15.19
2018-09-14T07:10:14.450Z,15.23
2018-09-14T07:12:44.356Z,15.24
2018-09-14T07:15:13.507Z,15.21
2018-09-14T07:17:43.611Z,15.24
2018-09-14T07:20:13.099Z,15.26
2018-09-14T07:22:43.262Z,15.27
2018-09-14T07:25:12.274Z,15.29
2018-09-14T07:27:49.823Z,15.33
2018-09-14T07:30:21.910Z,15.39
2018-09-14T07:32:53.294Z,15.46
2018-09-14T07:38:03.622Z,15.62
2018-09-14T07:40:32.926Z,15.70
2018-09-14T07:43:03.261Z,15.73
2018-09-14T07:45:33.248Z,15.79
2018-09-14T07:48:02.836Z,15.86
2018-09-14T07:50:31.982Z,15.83
2018-09-14T07:53:02.678Z,15.89
2018-09-14T07:55:31.482Z,15.92
2018-09-14T07:58:04.864Z,15.96
2018-09-14T08:00:33.350Z,16.05
2018-09-14T08:03:03.396Z,16.13
2018-09-14T08:05:33.522Z,16.18
2018-09-14T08:08:02.774Z,15.75
2018-09-14T08:10:33.786Z,16.13
2018-09-14T08:13:08.144Z,16.16
2018-09-14T08:15:38.781Z,16.13
2018-09-14T08:18:07.378Z,16.09
2018-09-14T08:20:36.100Z,15.79
2018-09-14T08:23:06.378Z,16.07
2018-09-14T08:25:36.590Z,16.06
2018-09-14T08:28:05.226Z,16.13
2018-09-14T08:30:35.323Z,16.15
2018-09-14T08:33:05.186Z,16.16
2018-09-14T08:35:34.077Z,16.22
2018-09-14T08:38:06.094Z,16.24
2018-09-14T08:40:34.779Z,16.01
2018-09-14T08:43:04.109Z,16.30
2018-09-14T08:45:34.157Z,16.23
2018-09-14T08:48:06.440Z,16.26
2018-09-14T08:50:35.026Z,16.29
2018-09-14T08:53:05.953Z,16.36
2018-09-14T08:55:35.438Z,16.42
2018-09-14T08:58:05.627Z,16.49
2018-09-14T09:00:34.443Z,16.47
2018-09-14T09:03:04.850Z,16.49
2018-09-14T09:05:37.678Z,16.58
2018-09-14T09:08:06.727Z,16.52
2018-09-14T09:10:35.374Z,16.57
2018-09-14T09:13:05.590Z,16.63
2018-09-14T09:15:34.379Z,16.64
2018-09-14T09:18:04.294Z,16.64
2018-09-14T09:20:34.778Z,16.71
2018-09-14T09:23:04.038Z,16.77
2018-09-14T09:25:34.251Z,16.81
2018-09-14T09:28:03.517Z,16.71
2018-09-14T09:30:34.131Z,16.65
2018-09-14T09:33:03.720Z,16.61
2018-09-14T09:35:35.190Z,16.57
2018-09-14T09:38:04.679Z,16.52
2018-09-14T09:40:34.426Z,16.49
2018-09-14T09:43:03.858Z,16.46
2018-09-14T09:45:33.590Z,16.39
2018-09-14T09:48:09.415Z,16.35
2018-09-14T09:50:38.958Z,16.34
2018-09-14T09:53:08.098Z,16.29
2018-09-14T09:55:38.579Z,16.26
2018-09-14T09:58:08.594Z,16.32
2018-09-14T10:00:44.076Z,16.42
2018-09-14T10:03:16.514Z,16.44
2018-09-14T10:05:52.650Z,16.53
2018-09-14T10:08:26.187Z,16.57
2018-09-14T10:10:55.534Z,16.54
2018-09-14T10:13:25.753Z,16.49
2018-09-14T10:15:57.805Z,16.37
2018-09-14T10:18:27.610Z,16.32
2018-09-14T10:20:57.483Z,16.27
2018-09-14T10:23:27.487Z,16.20
2018-09-14T10:25:56.999Z,16.18
2018-09-14T10:28:28.435Z,16.11
2018-09-14T10:30:57.069Z,16.13
2018-09-14T10:33:28.946Z,16.15
2018-09-14T10:35:58.026Z,16.17
2018-09-14T10:38:26.655Z,16.19
2018-09-14T10:41:05.542Z,16.19
2018-09-14T10:43:39.418Z,15.87
2018-09-14T10:46:08.282Z,16.18
2018-09-14T10:48:38.062Z,16.16
2018-09-14T10:51:08.042Z,16.07
2018-09-14T10:53:37.970Z,16.05
2018-09-14T10:56:07.074Z,16.05
2018-09-14T10:58:45.207Z,16.14
2018-09-14T11:01:18.001Z,16.19
2018-09-14T11:03:48.433Z,16.22
2018-09-14T11:06:18.038Z,16.32
2018-09-14T11:08:48.877Z,16.34
2018-09-14T11:11:18.058Z,16.39
2018-09-14T11:13:48.096Z,16.42
2018-09-14T11:16:19.445Z,16.30
2018-09-14T11:18:49.266Z,16.25
2018-09-14T11:21:19.006Z,16.24
2018-09-14T11:23:48.658Z,16.29
2018-09-14T11:26:17.742Z,16.35
2018-09-14T11:28:51.082Z,16.44
2018-09-14T11:31:25.686Z,16.50
2018-09-14T11:33:58.634Z,16.19
2018-09-14T11:36:27.911Z,16.54
2018-09-14T11:38:59.978Z,16.61
2018-09-14T11:41:30.258Z,16.71
2018-09-14T11:43:59.756Z,16.80
2018-09-14T11:46:29.664Z,16.80
2018-09-14T11:48:59.970Z,16.80
2018-09-14T11:51:30.878Z,16.80
2018-09-14T11:53:59.974Z,16.76
2018-09-14T11:56:29.806Z,16.81
2018-09-14T11:58:59.217Z,16.83
2018-09-14T12:01:30.121Z,16.84
2018-09-14T12:03:58.578Z,16.83
2018-09-14T12:06:28.802Z,16.90
2018-09-14T12:08:59.208Z,16.95
2018-09-14T12:11:29.190Z,16.92
2018-09-14T12:14:00.140Z,16.96
2018-09-14T12:16:30.635Z,17.05
2018-09-14T12:19:00.114Z,17.12
2018-09-14T12:21:30.095Z,17.08
2018-09-14T12:23:58.685Z,17.11
2018-09-14T12:26:28.774Z,17.18
2018-09-14T12:29:00.126Z,17.22
2018-09-14T12:31:28.703Z,17.18
2018-09-14T12:33:57.562Z,17.25
2018-09-14T12:36:26.927Z,17.32
2018-09-14T12:38:56.482Z,17.33
2018-09-14T12:41:28.220Z,17.45
2018-09-14T12:43:58.553Z,17.54
2018-09-14T12:46:27.246Z,17.57
2018-09-14T12:48:59.107Z,17.58
2018-09-14T12:51:28.597Z,17.62
2018-09-14T12:53:57.447Z,17.62
2018-09-14T12:56:27.131Z,17.67
2018-09-14T12:58:57.409Z,17.60
2018-09-14T13:01:28.164Z,17.63
2018-09-14T13:03:56.834Z,17.62
2018-09-14T13:06:27.809Z,17.67
2018-09-14T13:08:57.865Z,17.69
2018-09-14T13:11:30.414Z,17.54
2018-09-14T13:14:01.201Z,17.58
2018-09-14T13:16:31.540Z,17.56
2018-09-14T13:19:02.239Z,17.58
2018-09-14T13:21:32.014Z,17.57
2018-09-14T13:24:01.236Z,17.55
2018-09-14T13:26:31.762Z,17.59
2018-09-14T13:29:01.062Z,17.65
2018-09-14T13:31:31.145Z,17.66
2018-09-14T13:34:01.046Z,17.69
2018-09-14T13:36:32.403Z,17.67
2018-09-14T13:39:01.470Z,17.54
2018-09-14T13:41:31.006Z,17.51
2018-09-14T13:43:59.919Z,17.52
2018-09-14T13:46:31.354Z,17.50
2018-09-14T13:49:01.656Z,17.49
2018-09-14T13:51:30.490Z,17.40
2018-09-14T13:53:59.339Z,17.33
2018-09-14T13:56:32.098Z,17.25
2018-09-14T13:59:00.770Z,17.24
2018-09-14T14:01:30.404Z,16.94
2018-09-14T14:03:59.106Z,17.20
2018-09-14T14:06:32.256Z,17.19
2018-09-14T14:09:01.021Z,17.12
2018-09-14T14:11:29.697Z,17.13
2018-09-14T14:13:58.445Z,17.19
2018-09-14T14:16:28.116Z,17.16
2018-09-14T14:18:58.432Z,17.06
2018-09-14T14:21:26.914Z,17.10
2018-09-14T14:23:55.567Z,17.12
2018-09-14T14:26:24.219Z,17.05
2018-09-14T14:28:52.682Z,17.03
2018-09-14T14:31:21.693Z,16.98
2018-09-14T14:33:50.186Z,16.94
2018-09-14T14:36:18.963Z,16.97
2018-09-14T14:38:47.465Z,16.99
2018-09-14T14:41:16.247Z,16.96
2018-09-14T14:43:44.710Z,16.97
2018-09-14T14:46:13.864Z,16.95
2018-09-14T14:48:42.395Z,16.96
2018-09-14T14:51:11.134Z,17.01
2018-09-14T14:53:39.770Z,17.02
2018-09-14T14:56:08.544Z,17.00
2018-09-14T14:58:37.949Z,16.94
2018-09-14T15:01:06.430Z,16.98
2018-09-14T15:03:35.502Z,16.98
2018-09-14T15:06:04.208Z,16.94
2018-09-14T15:08:33.462Z,16.90
2018-09-14T15:11:01.926Z,16.83
2018-09-14T15:13:30.863Z,16.81
2018-09-14T15:15:59.493Z,16.80
2018-09-14T15:18:28.010Z,16.78
2018-09-14T15:20:56.633Z,16.70
2018-09-14T15:23:25.123Z,16.61
2018-09-14T15:25:54.010Z,16.61
2018-09-14T15:28:22.610Z,16.49
2018-09-14T15:30:51.270Z,16.39
2018-09-14T15:33:19.774Z,16.30
2018-09-14T15:35:48.563Z,16.23
2018-09-14T15:38:17.202Z,16.14
2018-09-14T15:40:45.796Z,16.04
2018-09-14T15:43:14.415Z,15.66
2018-09-14T15:45:42.890Z,15.84
2018-09-14T15:48:11.756Z,15.77
2018-09-14T15:50:40.286Z,15.69
2018-09-14T15:53:09.017Z,15.65
2018-09-14T15:55:37.825Z,15.60
2018-09-14T15:58:06.566Z,15.53
2018-09-14T16:00:35.039Z,15.47
2018-09-14T16:03:03.569Z,15.47
2018-09-14T16:05:32.246Z,15.41
2018-09-14T16:08:00.698Z,15.38
2018-09-14T16:10:29.470Z,15.08
2018-09-14T16:12:57.946Z,15.33
2018-09-14T16:15:26.678Z,15.32
2018-09-14T16:17:55.226Z,15.27
2018-09-14T16:20:25.183Z,15.25
2018-09-14T16:22:55.234Z,15.15
2018-09-14T16:25:23.829Z,14.92
2018-09-14T16:27:52.414Z,14.71
2018-09-14T16:30:20.954Z,14.50
2018-09-14T16:32:49.674Z,14.23
2018-09-14T16:35:18.150Z,14.12
2018-09-14T16:37:46.891Z,14.07
2018-09-14T16:40:15.498Z,14.06
2018-09-14T16:42:44.367Z,14.02
2018-09-14T16:45:13.139Z,13.94
2018-09-14T16:47:41.786Z,13.83
2018-09-14T16:50:10.326Z,13.55
2018-09-14T16:52:38.942Z,13.76
2018-09-14T16:55:07.722Z,13.69
2018-09-14T16:57:36.274Z,13.65
2018-09-14T17:00:05.983Z,13.66
2018-09-14T17:02:34.722Z,13.68
2018-09-14T17:05:03.994Z,13.68
2018-09-14T17:07:32.653Z,13.66
2018-09-14T17:10:01.369Z,13.66
2018-09-14T17:12:29.942Z,13.61
2018-09-14T17:14:58.553Z,13.60
2018-09-14T17:17:27.262Z,13.29
2018-09-14T17:19:55.794Z,13.62
2018-09-14T17:22:24.613Z,13.30
2018-09-14T17:24:53.090Z,13.64
2018-09-14T17:27:21.973Z,13.62
2018-09-14T17:29:50.523Z,13.65
2018-09-14T17:32:19.056Z,13.65
2018-09-14T17:34:47.618Z,13.64
2018-09-14T17:37:16.207Z,13.66
2018-09-14T17:39:45.064Z,13.65
2018-09-14T17:42:14.084Z,13.64
2018-09-14T17:44:42.988Z,13.29
2018-09-14T17:47:11.534Z,13.68
2018-09-14T17:49:40.386Z,13.71
2018-09-14T17:52:15.173Z,13.41
2018-09-14T17:54:45.182Z,13.47
2018-09-14T17:57:17.085Z,13.77
2018-09-14T17:59:46.622Z,13.80
2018-09-14T18:02:15.316Z,13.84
2018-09-14T18:04:44.702Z,13.87
2018-09-14T18:07:13.696Z,13.90
2018-09-14T18:09:42.447Z,13.90
2018-09-14T18:12:15.727Z,13.93
2018-09-14T18:14:44.238Z,13.93
2018-09-14T18:17:12.862Z,13.95
2018-09-14T18:19:41.813Z,13.96
2018-09-14T18:22:11.194Z,14.00
2018-09-14T18:24:40.242Z,14.04
2018-09-14T18:27:09.035Z,14.00
2018-09-14T18:29:39.771Z,14.09
2018-09-14T18:32:08.739Z,13.88
2018-09-14T18:34:37.499Z,14.20
2018-09-14T18:37:06.330Z,14.26
2018-09-14T18:39:34.903Z,14.28
2018-09-14T18:42:03.605Z,14.33
2018-09-14T18:44:32.207Z,14.37
2018-09-14T18:47:00.802Z,14.37
2018-09-14T18:49:30.011Z,14.39
2018-09-14T18:51:58.538Z,14.40
2018-09-14T18:54:27.366Z,14.42
2018-09-14T18:56:55.861Z,14.41
2018-09-14T18:59:25.919Z,14.42
2018-09-14T19:01:54.446Z,14.40
2018-09-14T19:04:25.176Z,14.41
2018-09-14T19:06:55.502Z,14.40
2018-09-14T19:09:25.811Z,14.40
2018-09-14T19:11:56.700Z,14.37
2018-09-14T19:14:25.322Z,14.38
2018-09-14T19:16:53.926Z,14.35
2018-09-14T19:19:22.540Z,14.31
2018-09-14T19:21:51.206Z,14.29
2018-09-14T19:24:20.041Z,14.29
2018-09-14T19:26:48.706Z,14.26
2018-09-14T19:29:18.052Z,14.24
2018-09-14T19:31:46.634Z,14.24
2018-09-14T19:34:15.498Z,14.25
2018-09-14T19:36:44.026Z,14.24
2018-09-14T19:39:13.718Z,14.25
2018-09-14T19:41:42.282Z,14.27
2018-09-14T19:44:10.805Z,14.29
2018-09-14T19:46:39.333Z,14.31
2018-09-14T19:49:07.902Z,14.26
2018-09-14T19:51:37.216Z,14.27
2018-09-14T19:54:05.808Z,14.28
2018-09-14T19:56:35.018Z,14.28
2018-09-14T19:59:03.694Z,14.33
2018-09-14T20:01:32.294Z,14.34
2018-09-14T20:04:00.952Z,14.35
2018-09-14T20:09:00.681Z,14.34
2018-09-14T20:11:29.340Z,14.35
2018-09-14T20:13:57.791Z,14.34
2018-09-14T20:16:26.271Z,14.35
2018-09-14T20:18:55.046Z,13.83
2018-09-14T20:21:23.513Z,14.35
2018-09-14T20:23:52.322Z,13.78
2018-09-14T20:26:20.882Z,14.38
2018-09-14T20:28:49.681Z,14.37
2018-09-14T20:31:18.251Z,14.35
2018-09-14T20:33:46.779Z,14.34
2018-09-14T20:36:15.343Z,14.33
2018-09-14T20:38:43.846Z,14.34
2018-09-14T20:41:12.474Z,14.36
2018-09-14T20:43:40.955Z,14.33
2018-09-14T20:46:09.677Z,14.33
2018-09-14T20:48:38.210Z,14.33
2018-09-14T20:51:06.835Z,14.32
2018-09-14T20:53:35.422Z,14.28
2018-09-14T20:56:04.086Z,14.25
2018-09-14T20:58:33.431Z,14.28
2018-09-14T21:01:01.941Z,14.28
2018-09-14T21:03:30.831Z,14.25
2018-09-14T21:05:59.310Z,14.25
2018-09-14T21:08:28.134Z,14.25
2018-09-14T21:10:56.705Z,14.24
2018-09-14T21:13:25.298Z,14.21
2018-09-14T21:15:53.894Z,13.76
2018-09-14T21:18:22.363Z,13.92
2018-09-14T21:20:51.230Z,13.65
2018-09-14T21:23:19.787Z,13.71
2018-09-14T21:25:48.673Z,13.60
2018-09-14T21:28:17.215Z,13.54
2018-09-14T21:30:45.990Z,13.45
2018-09-14T21:33:14.564Z,13.42
2018-09-14T21:35:43.146Z,13.45
2018-09-14T21:38:11.871Z,13.46
2018-09-14T21:40:40.459Z,13.53
2018-09-14T21:43:08.930Z,13.63
2018-09-14T21:45:37.418Z,13.67
2018-09-14T21:48:06.342Z,13.69
2018-09-14T21:50:34.930Z,13.66
2018-09-14T21:53:03.715Z,13.68
2018-09-14T21:55:32.192Z,13.69
2018-09-14T21:58:00.845Z,13.65
2018-09-14T22:00:34.846Z,13.64
2018-09-14T22:03:03.890Z,13.66
2018-09-14T22:05:32.471Z,13.64
2018-09-14T22:08:01.148Z,13.66
2018-09-14T22:10:29.740Z,13.67
2018-09-14T22:12:58.329Z,13.67
2018-09-14T22:15:26.818Z,13.69
2018-09-14T22:17:55.408Z,13.72
2018-09-14T22:20:23.969Z,13.74
2018-09-14T22:22:52.595Z,13.75
2018-09-14T22:25:21.354Z,13.52
2018-09-14T22:27:50.031Z,13.80
2018-09-14T22:30:18.954Z,13.80
2018-09-14T22:32:47.535Z,13.81
2018-09-14T22:35:16.358Z,13.81
2018-09-14T22:37:44.913Z,13.80
2018-09-14T22:40:13.572Z,13.80
2018-09-14T22:42:42.145Z,13.81
2018-09-14T22:45:10.760Z,13.80
2018-09-14T22:47:39.322Z,13.55
2018-09-14T22:50:07.898Z,13.78
2018-09-14T22:52:36.655Z,13.77
2018-09-14T22:55:05.386Z,13.76
2018-09-14T22:57:34.426Z,13.19
2018-09-14T23:00:02.942Z,13.71
2018-09-14T23:02:31.712Z,13.69
2018-09-14T23:05:00.300Z,13.68
2018-09-14T23:07:28.846Z,13.65
2018-09-14T23:09:57.468Z,13.33
2018-09-14T23:12:26.049Z,13.58
2018-09-14T23:14:54.945Z,13.57
2018-09-14T23:17:23.542Z,13.55
2018-09-14T23:19:52.304Z,13.54
2018-09-14T23:22:20.829Z,13.51
2018-09-14T23:24:50.320Z,13.50
2018-09-14T23:27:18.924Z,13.48
2018-09-14T23:29:47.595Z,13.49
2018-09-14T23:32:16.358Z,13.37
2018-09-14T23:37:12.166Z,13.44
2018-09-14T23:39:40.683Z,13.43
2018-09-14T23:42:09.271Z,13.42
2018-09-14T23:44:38.444Z,13.40
2018-09-14T23:47:07.283Z,13.37
2018-09-14T23:49:35.937Z,13.38
2018-09-14T23:52:04.522Z,13.39
2018-09-14T23:54:33.261Z,13.40
2018-09-14T23:57:01.871Z,13.39
2018-09-14T23:59:30.555Z,13.38
